In Rescue
 
Open Full Screen Window  High Contrast Mode
Wind Gusting 17 knots
10
March 01, 2024 4:18 PM CST
Weather Information
Wind Direction
  210 °
Wind Speed
  10 kt (12 mph)
Wind Gust
  17 kt (20 mph)
Altimeter
29.89 in
Visibility
10 SM
Temperature
13° C
55° F
Dewpoint
-02° C
28° F
Humidity
35%
Sky Condition
Clear
VFR

METAR KONA 012218Z AUTO 21010G17KT 10SM CLR 13/M02 A2989 RMK AO2

FAA Disclaimer: The data displayed is for advisory purposes only and is not to be used for flight planning or operations.